| time (UTC) | temp F | wind direction | speed knots | gust knots | rain 1hr in | rain 24hr in | rain mn in | humidity % | barometer mb |
| 20260507180015 | 62 | 305 | 1.7 | 5.2 | 0.00 | 0.03 | 0.03 | 56 | 1013.4 |
| 20260507174517 | 61 | 329 | 2.6 | 5.2 | 0.00 | 0.03 | 0.03 | 57 | 1013.4 |
| 20260507173015 | 61 | 330 | 1.7 | 6.1 | 0.00 | 0.03 | 0.03 | 57 | 1013.4 |
| 20260507171510 | 62 | 311 | 0.9 | 2.6 | 0.00 | 0.03 | 0.03 | 56 | 1013.3 |
| 20260507170008 | 64 | 168 | 1.7 | 6.1 | 0.00 | 0.03 | 0.03 | 54 | 1013.5 |
| 20260507164506 | 62 | 157 | 0.9 | 5.2 | 0.00 | 0.03 | 0.03 | 56 | 1013.5 |
| 20260507163006 | 60 | 74 | 0.9 | 7.0 | 0.00 | 0.03 | 0.03 | 61 | 1013.4 |
| 20260507161508 | 59 | 66 | 1.7 | 6.1 | 0.00 | 0.03 | 0.03 | 61 | 1013.4 |
| 20260507160006 | 59 | 96 | 0.0 | 2.6 | 0.00 | 0.03 | 0.03 | 62 | 1013.6 |
| 20260507154507 | 62 | 62 | 0.0 | 3.5 | 0.00 | 0.03 | 0.03 | 56 | 1013.7 |
| 20260507153001 | 59 | 300 | 0.0 | 1.7 | 0.00 | 0.03 | 0.03 | 60 | 1014.0 |
| 20260507151516 | 61 | 158 | 0.0 | 1.7 | 0.00 | 0.03 | 0.03 | 56 | 1013.7 |
| 20260507150058 | 60 | 176 | 0.0 | 0.0 | 0.00 | 0.03 | 0.03 | 61 | 1013.4 |
| 20260507150002 | 59 | 176 | 0.0 | 0.9 | 0.00 | 0.03 | 0.03 | 61 | 1013.4 |
| 20260507144553 | 57 | 79 | 0.9 | 2.6 | 0.00 | 0.03 | 0.03 | 63 | 1013.3 |
| 20260507143054 | 56 | 118 | 0.0 | 0.9 | 0.01 | 0.03 | 0.03 | 64 | 1013.2 |
| 20260507141548 | 54 | 326 | 0.9 | 2.6 | 0.03 | 0.03 | 0.03 | 66 | 1013.0 |
| 20260507134526 | 53 | 340 | 0.9 | 2.6 | 0.03 | 0.03 | 0.03 | 68 | 1012.8 |
| 20260507133025 | 53 | 30 | 0.0 | 0.9 | 0.02 | 0.02 | 0.02 | 68 | 1012.6 |
| 20260507131527 | 51 | 30 | 0.0 | 0.9 | 0.00 | 0.00 | 0.00 | 72 | 1012.5 |
| 20260507130024 | 49 | 30 | 0.0 | 1.7 | 0.00 | 0.00 | 0.00 | 74 | 1012.4 |
| 20260507124519 | 48 | 30 | 0.0 | 1.7 | 0.00 | 0.00 | 0.00 | 75 | 1012.3 |
| 20260507123016 | 49 | 30 | 0.0 | 1.7 | 0.00 | 0.00 | 0.00 | 75 | 1012.1 |
| 20260507121513 | 49 | 30 | 0.0 | 1.7 | 0.00 | 0.00 | 0.00 | 74 | 1011.7 |
| 20260507120013 | 49 | 30 | 0.0 | 1.7 | 0.00 | 0.00 | 0.00 | 73 | 1011.5 |
| 20260507114510 | 49 | 30 | 0.0 | 0.9 | 0.00 | 0.00 | 0.00 | 74 | 1011.3 |
| 20260507113005 | 50 | 341 | 0.9 | 2.6 | 0.00 | 0.00 | 0.00 | 73 | 1011.3 |
| 20260507110025 | 51 | 317 | 0.9 | 2.6 | 0.00 | 0.00 | 0.00 | 69 | 1011.0 |
| 20260507104607 | 52 | 255 | 0.0 | 0.9 | 0.00 | 0.00 | 0.00 | 67 | 1010.7 |
| 20260507103010 | 52 | 255 | 0.0 | 1.7 | 0.00 | 0.00 | 0.00 | 65 | 1010.6 |
| 20260507101542 | 53 | 254 | 0.9 | 1.7 | 0.00 | 0.00 | 0.00 | 64 | 1010.5 |
| 20260507101503 | 53 | 254 | 0.9 | 1.7 | 0.00 | 0.00 | 0.00 | 64 | 1010.5 |
| 20260507100009 | 53 | 254 | 0.0 | 0.0 | 0.00 | 0.00 | 0.00 | 63 | 1010.4 |
| 20260507094541 | 54 | 254 | 0.0 | 0.9 | 0.00 | 0.00 | 0.00 | 61 | 1010.1 |
| 20260507093018 | 54 | 254 | 0.0 | 0.9 | 0.00 | 0.00 | 0.00 | 61 | 1010.2 |
| 20260507091515 | 55 | 254 | 0.0 | 1.7 | 0.00 | 0.00 | 0.00 | 62 | 1009.9 |
| 20260507090008 | 56 | 254 | 0.0 | 1.7 | 0.00 | 0.00 | 0.00 | 60 | 1009.8 |
| 20260507084509 | 56 | 7 | 0.0 | 1.7 | 0.00 | 0.00 | 0.00 | 60 | 1009.7 |
| 20260507083005 | 56 | 7 | 0.0 | 0.0 | 0.00 | 0.00 | 0.00 | 61 | 1009.4 |
| 20260507081504 | 56 | 7 | 0.0 | 2.6 | 0.00 | 0.00 | 0.00 | 61 | 1009.3 |
| 20260507080100 | 56 | 204 | 0.0 | 2.6 | 0.00 | 0.00 | 0.00 | 61 | 1009.1 |
| 20260507080001 | 56 | 204 | 0.0 | 2.6 | 0.00 | 0.00 | 0.00 | 61 | 1009.1 |
| 20260507074613 | 57 | 264 | 0.0 | 0.9 | 0.00 | 0.00 | 0.00 | 58 | 1009.0 |
| 20260507073101 | 58 | 329 | 0.0 | 1.7 | 0.00 | 0.00 | 0.00 | 60 | 1008.8 |
| 20260507071552 | 59 | 48 | 0.0 | 1.7 | 0.00 | 0.00 | 0.00 | 62 | 1008.6 |
| 20260507070050 | 59 | 48 | 0.0 | 1.7 | 0.00 | 0.00 | 0.00 | 63 | 1008.5 |
| 20260507064547 | 61 | 49 | 0.0 | 1.7 | 0.00 | 0.00 | 0.00 | 61 | 1008.4 |
| 20260507063056 | 60 | 269 | 0.0 | 2.6 | 0.00 | 0.00 | 0.00 | 62 | 1008.4 |
| 20260507061606 | 61 | 78 | 0.0 | 1.7 | 0.00 | 0.00 | 0.00 | 60 | 1008.2 |
| 20260507054548 | 63 | 245 | 0.0 | 1.7 | 0.00 | 0.00 | 0.00 | 51 | 1008.2 |
| 20260507053041 | 65 | 276 | 0.0 | 1.7 | 0.00 | 0.00 | 0.00 | 45 | 1008.1 |
| 20260507051523 | 66 | 289 | 0.0 | 5.2 | 0.00 | 0.00 | 0.00 | 43 | 1008.1 |
| 20260507050033 | 68 | 257 | 0.0 | 5.2 | 0.00 | 0.00 | 0.00 | 42 | 1008.1 |
| 20260507044532 | 69 | 140 | 1.7 | 12.2 | 0.00 | 0.00 | 0.00 | 41 | 1008.1 |
| 20260507043021 | 69 | 175 | 2.6 | 7.8 | 0.00 | 0.00 | 0.00 | 41 | 1008.1 |
| 20260507041528 | 70 | 238 | 3.5 | 8.7 | 0.00 | 0.00 | 0.00 | 39 | 1008.0 |
| 20260507040019 | 70 | 221 | 6.1 | 11.3 | 0.00 | 0.00 | 0.00 | 38 | 1007.8 |
| 20260507034518 | 71 | 217 | 2.6 | 9.6 | 0.00 | 0.00 | 0.00 | 42 | 1007.8 |
| 20260507033018 | 71 | 58 | 1.7 | 8.7 | 0.00 | 0.00 | 0.00 | 43 | 1007.6 |
| 20260507031524 | 71 | 226 | 4.3 | 8.7 | 0.00 | 0.00 | 0.00 | 43 | 1007.8 |
| 20260507030016 | 72 | 167 | 0.9 | 11.3 | 0.00 | 0.00 | 0.00 | 45 | 1007.9 |
| 20260507024515 | 72 | 209 | 4.3 | 10.4 | 0.00 | 0.00 | 0.00 | 45 | 1007.9 |
| 20260507023013 | 73 | 189 | 2.6 | 5.2 | 0.00 | 0.00 | 0.00 | 42 | 1008.0 |
| 20260507021512 | 73 | 167 | 2.6 | 7.0 | 0.00 | 0.00 | 0.00 | 41 | 1008.1 |
| 20260507020011 | 74 | 232 | 3.5 | 7.8 | 0.00 | 0.00 | 0.00 | 39 | 1008.2 |
| 20260507014515 | 74 | 172 | 2.6 | 7.8 | 0.00 | 0.00 | 0.00 | 39 | 1008.3 |
| 20260507013009 | 74 | 161 | 4.3 | 9.6 | 0.00 | 0.00 | 0.00 | 38 | 1008.5 |
| 20260507011509 | 74 | 187 | 4.3 | 10.4 | 0.00 | 0.00 | 0.00 | 38 | 1008.6 |
| 20260507010004 | 74 | 226 | 4.3 | 12.2 | 0.00 | 0.00 | 0.00 | 37 | 1008.6 |
| 20260507004508 | 75 | 227 | 5.2 | 11.3 | 0.00 | 0.00 | 0.00 | 37 | 1008.7 |
| 20260507003002 | 75 | 241 | 6.1 | 13.0 | 0.00 | 0.00 | 0.00 | 37 | 1008.7 |
| 20260507001534 | 76 | 191 | 4.3 | 9.6 | 0.00 | 0.00 | 0.00 | 36 | 1008.8 |
| 20260507000059 | 76 | 224 | 3.5 | 9.6 | 0.00 | 0.00 | 0.00 | 35 | 1008.7 |
| 20260506234538 | 76 | 233 | 6.1 | 12.2 | 0.00 | 0.00 | 0.00 | 36 | 1008.9 |
| 20260506233036 | 77 | 250 | 3.5 | 10.4 | 0.00 | 0.00 | 0.00 | 36 | 1009.0 |
| 20260506231533 | 77 | 248 | 3.5 | 15.6 | 0.00 | 0.00 | 0.00 | 39 | 1009.1 |
| 20260506230018 | 76 | 213 | 6.1 | 10.4 | 0.00 | 0.00 | 0.00 | 39 | 1009.2 |
| 20260506224520 | 77 | 223 | 5.2 | 12.2 | 0.00 | 0.00 | 0.00 | 41 | 1009.5 |
| 20260506223020 | 77 | 225 | 7.0 | 11.3 | 0.00 | 0.00 | 0.00 | 40 | 1009.7 |
| 20260506221514 | 78 | 188 | 5.2 | 10.4 | 0.00 | 0.00 | 0.00 | 39 | 1009.8 |
| 20260506220012 | 77 | 201 | 2.6 | 12.2 | 0.00 | 0.00 | 0.00 | 41 | 1009.9 |
| 20260506214510 | 78 | 156 | 3.5 | 11.3 | 0.00 | 0.00 | 0.00 | 40 | 1010.1 |
| 20260506213008 | 78 | 187 | 5.2 | 13.0 | 0.00 | 0.00 | 0.00 | 39 | 1010.2 |
| 20260506211513 | 76 | 302 | 1.7 | 10.4 | 0.00 | 0.00 | 0.00 | 42 | 1010.4 |
| 20260506210007 | 76 | 245 | 4.3 | 11.3 | 0.00 | 0.00 | 0.00 | 40 | 1010.6 |
| 20260506204505 | 76 | 245 | 3.5 | 9.6 | 0.00 | 0.00 | 0.00 | 40 | 1010.7 |
| 20260506203001 | 77 | 286 | 2.6 | 12.2 | 0.00 | 0.00 | 0.00 | 42 | 1010.9 |
| 20260506201609 | 76 | 278 | 0.9 | 6.1 | 0.00 | 0.00 | 0.00 | 40 | 1010.9 |
| 20260506200100 | 76 | 164 | 0.9 | 7.0 | 0.00 | 0.00 | 0.00 | 38 | 1011.2 |
| 20260506194609 | 72 | 77 | 0.9 | 3.5 | 0.00 | 0.00 | 0.00 | 42 | 1011.3 |
| 20260506193053 | 71 | 353 | 0.9 | 3.5 | 0.00 | 0.00 | 0.00 | 41 | 1011.6 |
| 20260506191545 | 70 | 100 | 0.9 | 3.5 | 0.00 | 0.00 | 0.00 | 40 | 1012.0 |
| 20260506190011 | 68 | 81 | 0.9 | 3.5 | 0.00 | 0.00 | 0.00 | 41 | 1012.2 |
| 20260506184513 | 68 | 333 | 1.7 | 5.2 | 0.00 | 0.00 | 0.00 | 41 | 1012.3 |
| 20260506183006 | 67 | 71 | 0.9 | 4.3 | 0.00 | 0.00 | 0.00 | 40 | 1012.3 |
| 20260506181508 | 67 | 303 | 1.7 | 3.5 | 0.00 | 0.00 | 0.00 | 40 | 1012.2 |